createdAt,value
2018-11-29T00:00:44.167Z,74.76
2018-11-29T00:01:48.255Z,74.50
2018-11-29T00:02:52.600Z,74.24
2018-11-29T00:03:57.035Z,74.32
2018-11-29T00:05:01.487Z,74.64
2018-11-29T00:06:05.815Z,74.62
2018-11-29T00:07:10.159Z,74.36
2018-11-29T00:08:14.342Z,74.43
2018-11-29T00:09:18.743Z,74.40
2018-11-29T00:10:22.767Z,74.77
2018-11-29T00:11:27.051Z,74.47
2018-11-29T00:12:31.151Z,74.71
2018-11-29T00:13:35.236Z,74.35
2018-11-29T00:14:39.356Z,74.68
2018-11-29T00:15:43.497Z,74.14
2018-11-29T00:16:47.663Z,74.26
2018-11-29T00:17:51.863Z,74.50
2018-11-29T00:18:55.924Z,74.32
2018-11-29T00:20:00.167Z,74.78
2018-11-29T00:21:04.188Z,74.73
2018-11-29T00:22:08.268Z,74.21
2018-11-29T00:23:12.654Z,74.25
2018-11-29T00:24:16.721Z,74.91
2018-11-29T00:25:20.910Z,74.78
2018-11-29T00:26:25.049Z,74.13
2018-11-29T00:27:29.098Z,74.29
2018-11-29T00:28:33.144Z,74.92
2018-11-29T00:29:37.139Z,74.88
2018-11-29T00:30:42.200Z,74.41
2018-11-29T00:31:46.506Z,74.70
2018-11-29T00:32:51.581Z,74.59
2018-11-29T00:33:55.654Z,74.22
2018-11-29T00:34:59.891Z,74.81
2018-11-29T00:36:03.988Z,74.37
2018-11-29T00:37:08.122Z,74.30
2018-11-29T00:38:12.151Z,74.17
2018-11-29T00:39:16.127Z,74.25
2018-11-29T00:40:22.102Z,74.24
2018-11-29T00:41:26.145Z,74.29
2018-11-29T00:42:30.258Z,74.82
2018-11-29T00:43:34.516Z,74.58
2018-11-29T00:44:38.597Z,74.73
2018-11-29T00:45:42.714Z,74.15
2018-11-29T00:46:46.779Z,74.44
2018-11-29T00:47:51.247Z,74.07
2018-11-29T00:48:55.294Z,74.81
2018-11-29T00:49:59.332Z,74.75
2018-11-29T00:51:03.350Z,74.49
2018-11-29T00:52:07.565Z,74.70
2018-11-29T00:53:11.692Z,74.60
2018-11-29T00:54:15.780Z,74.28
2018-11-29T00:55:20.794Z,75.10
2018-11-29T00:56:24.913Z,74.23
2018-11-29T00:57:29.056Z,74.64
2018-11-29T00:58:33.041Z,74.12
2018-11-29T00:59:37.172Z,74.60
2018-11-29T01:00:41.141Z,74.18
2018-11-29T01:01:50.604Z,74.07
2018-11-29T01:02:58.817Z,74.66
2018-11-29T01:04:02.939Z,74.35
2018-11-29T01:05:07.097Z,74.44
2018-11-29T01:06:11.248Z,74.29
2018-11-29T01:07:15.339Z,74.68
2018-11-29T01:08:19.418Z,74.77
2018-11-29T01:09:23.475Z,74.47
2018-11-29T01:10:27.580Z,74.74
2018-11-29T01:11:31.624Z,74.16
2018-11-29T01:12:35.819Z,74.49
2018-11-29T01:13:39.886Z,74.60
2018-11-29T01:14:44.265Z,74.55
2018-11-29T01:15:48.438Z,74.56
2018-11-29T01:16:52.565Z,74.10
2018-11-29T01:17:56.585Z,74.58
2018-11-29T01:19:00.676Z,74.62
2018-11-29T01:20:06.836Z,74.58
2018-11-29T01:21:09.990Z,74.64
2018-11-29T01:22:14.136Z,74.11
2018-11-29T01:23:18.238Z,74.72
2018-11-29T01:24:22.290Z,74.74
2018-11-29T01:25:26.310Z,74.72
2018-11-29T01:26:30.421Z,74.61
2018-11-29T01:27:34.486Z,74.13
2018-11-29T01:28:38.815Z,74.18
2018-11-29T01:29:42.856Z,74.04
2018-11-29T01:30:46.955Z,74.13
2018-11-29T01:31:51.043Z,74.52
2018-11-29T01:32:55.156Z,74.09
2018-11-29T01:34:00.120Z,74.14
2018-11-29T01:35:04.184Z,74.35
2018-11-29T01:36:08.247Z,74.68
2018-11-29T01:37:12.330Z,74.22
2018-11-29T01:38:16.443Z,74.47
2018-11-29T01:39:20.532Z,74.76
2018-11-29T01:40:24.588Z,74.68
2018-11-29T01:41:28.647Z,74.13
2018-11-29T01:42:32.841Z,74.28
2018-11-29T01:43:36.930Z,74.36
2018-11-29T01:44:41.041Z,73.95
2018-11-29T01:45:45.083Z,74.10
2018-11-29T01:46:49.063Z,74.63
2018-11-29T01:47:53.223Z,74.39
2018-11-29T01:48:57.188Z,74.48
2018-11-29T01:50:01.352Z,74.45
2018-11-29T01:51:06.403Z,74.07
2018-11-29T01:52:12.732Z,73.88
2018-11-29T01:53:17.163Z,74.31
2018-11-29T01:54:21.210Z,74.48
2018-11-29T01:55:25.235Z,74.60
2018-11-29T01:56:29.281Z,73.96
2018-11-29T01:57:33.361Z,74.49
2018-11-29T01:58:37.411Z,74.47
2018-11-29T01:59:41.514Z,73.80
2018-11-29T02:00:45.608Z,74.49
2018-11-29T02:01:49.663Z,74.14
2018-11-29T02:02:53.830Z,74.21
2018-11-29T02:03:57.955Z,74.48
2018-11-29T02:05:02.141Z,73.98
2018-11-29T02:06:06.746Z,74.36
2018-11-29T02:07:10.824Z,73.82
2018-11-29T02:08:14.797Z,73.81
2018-11-29T02:09:18.881Z,74.07
2018-11-29T02:10:27.460Z,74.16
2018-11-29T02:11:31.659Z,73.88
2018-11-29T02:12:35.837Z,74.19
2018-11-29T02:13:40.177Z,74.32
2018-11-29T02:14:44.331Z,73.81
2018-11-29T02:15:48.394Z,74.28
2018-11-29T02:16:53.513Z,73.67
2018-11-29T02:17:57.677Z,73.71
2018-11-29T02:19:02.085Z,73.71
2018-11-29T02:20:08.507Z,73.75
2018-11-29T02:21:12.554Z,73.79
2018-11-29T02:22:16.762Z,73.97
2018-11-29T02:23:21.154Z,74.28
2018-11-29T02:24:25.157Z,74.03
2018-11-29T02:25:29.278Z,73.90
2018-11-29T02:26:33.355Z,74.16
2018-11-29T02:27:37.723Z,73.72
2018-11-29T02:28:45.795Z,74.28
2018-11-29T02:29:49.984Z,74.12
2018-11-29T02:30:54.095Z,73.77
2018-11-29T02:31:58.192Z,74.31
2018-11-29T02:33:02.342Z,73.73
2018-11-29T02:34:06.678Z,73.83
2018-11-29T02:35:10.767Z,73.89
2018-11-29T02:36:14.893Z,73.80
2018-11-29T02:37:18.988Z,73.75
2018-11-29T02:38:23.162Z,73.93
2018-11-29T02:39:27.223Z,73.78
2018-11-29T02:40:31.449Z,74.00
2018-11-29T02:41:35.879Z,73.78
2018-11-29T02:42:40.091Z,74.30
2018-11-29T02:43:44.205Z,74.28
2018-11-29T02:44:48.410Z,73.88
2018-11-29T02:45:52.507Z,74.12
2018-11-29T02:46:56.632Z,73.88
2018-11-29T02:48:00.640Z,73.75
2018-11-29T02:49:04.839Z,73.66
2018-11-29T02:50:09.960Z,73.75
2018-11-29T02:51:14.130Z,74.02
2018-11-29T02:52:18.272Z,73.98
2018-11-29T02:53:22.407Z,73.69
2018-11-29T02:54:26.923Z,74.25
2018-11-29T02:55:30.961Z,74.09
2018-11-29T02:56:35.030Z,73.92
2018-11-29T02:57:39.331Z,74.22
2018-11-29T02:58:43.321Z,73.70
2018-11-29T02:59:47.327Z,73.80
2018-11-29T03:00:51.418Z,74.02
2018-11-29T03:01:55.636Z,74.35
2018-11-29T03:02:59.723Z,73.83
2018-11-29T03:04:03.729Z,73.86
2018-11-29T03:05:07.982Z,74.28
2018-11-29T03:06:11.991Z,74.30
2018-11-29T03:07:16.046Z,73.90
2018-11-29T03:08:20.054Z,74.32
2018-11-29T03:09:24.151Z,73.89
2018-11-29T03:10:29.210Z,73.98
2018-11-29T03:11:33.333Z,73.74
2018-11-29T03:12:37.525Z,74.32
2018-11-29T03:13:41.638Z,74.37
2018-11-29T03:14:45.788Z,73.97
2018-11-29T03:15:49.939Z,73.82
2018-11-29T03:16:54.091Z,73.79
2018-11-29T03:17:58.250Z,73.84
2018-11-29T03:19:02.423Z,74.29
2018-11-29T03:20:08.432Z,74.29
2018-11-29T03:21:12.688Z,73.78
2018-11-29T03:22:16.865Z,73.74
2018-11-29T03:23:21.286Z,73.89
2018-11-29T03:24:25.348Z,74.37
2018-11-29T03:25:29.807Z,74.23
2018-11-29T03:26:33.860Z,73.84
2018-11-29T03:27:38.068Z,74.24
2018-11-29T03:28:42.273Z,74.42
2018-11-29T03:29:46.437Z,74.54
2018-11-29T03:30:51.007Z,74.11
2018-11-29T03:31:55.170Z,74.63
2018-11-29T03:32:59.353Z,74.08
2018-11-29T03:34:03.406Z,74.36
2018-11-29T03:35:07.946Z,74.58
2018-11-29T03:36:12.071Z,74.24
2018-11-29T03:37:16.147Z,74.63
2018-11-29T03:38:20.317Z,74.55
2018-11-29T03:39:24.332Z,74.60
2018-11-29T03:40:29.023Z,74.04
2018-11-29T03:41:33.167Z,74.28
2018-11-29T03:42:37.420Z,74.55
2018-11-29T03:43:41.483Z,74.08
2018-11-29T03:44:45.491Z,74.70
2018-11-29T03:45:49.580Z,74.63
2018-11-29T03:46:53.669Z,74.69
2018-11-29T03:47:57.748Z,74.16
2018-11-29T03:49:01.863Z,74.70
2018-11-29T03:50:08.429Z,74.11
2018-11-29T03:51:12.515Z,74.66
2018-11-29T03:52:16.629Z,74.46
2018-11-29T03:53:20.727Z,74.12
2018-11-29T03:54:24.960Z,74.16
2018-11-29T03:55:28.959Z,74.57
2018-11-29T03:56:33.159Z,74.13
2018-11-29T03:57:37.908Z,74.35
2018-11-29T03:58:41.962Z,74.57
2018-11-29T03:59:46.181Z,74.04
2018-11-29T04:00:56.994Z,74.61
2018-11-29T04:02:01.056Z,74.69
2018-11-29T04:03:05.430Z,74.67
2018-11-29T04:04:09.486Z,74.65
2018-11-29T04:05:13.602Z,74.73
2018-11-29T04:06:17.811Z,74.42
2018-11-29T04:07:21.924Z,74.71
2018-11-29T04:08:25.999Z,74.70
2018-11-29T04:09:30.103Z,74.71
2018-11-29T04:10:34.203Z,74.72
2018-11-29T04:11:38.346Z,74.41
2018-11-29T04:12:42.534Z,73.99
2018-11-29T04:13:46.653Z,74.57
2018-11-29T04:14:50.744Z,74.33
2018-11-29T04:15:54.847Z,74.30
2018-11-29T04:16:59.066Z,73.90
2018-11-29T04:18:03.108Z,74.42
2018-11-29T04:19:07.145Z,74.42
2018-11-29T04:20:16.162Z,74.53
2018-11-29T04:21:20.250Z,73.92
2018-11-29T04:22:24.469Z,74.49
2018-11-29T04:23:28.627Z,73.84
2018-11-29T04:24:33.405Z,74.46
2018-11-29T04:25:37.437Z,74.03
2018-11-29T04:26:41.497Z,73.93
2018-11-29T04:27:45.554Z,74.07
2018-11-29T04:28:49.703Z,73.90
2018-11-29T04:29:53.775Z,74.42
2018-11-29T04:30:57.833Z,73.94
2018-11-29T04:32:02.028Z,74.42
2018-11-29T04:33:06.040Z,73.79
2018-11-29T04:34:10.124Z,74.02
2018-11-29T04:35:14.747Z,74.00
2018-11-29T04:36:18.831Z,74.43
2018-11-29T04:37:23.296Z,73.96
2018-11-29T04:38:27.283Z,74.56
2018-11-29T04:39:31.355Z,74.00
2018-11-29T04:40:35.411Z,74.65
2018-11-29T04:41:40.830Z,74.19
2018-11-29T04:42:44.934Z,74.52
2018-11-29T04:43:49.056Z,74.32
2018-11-29T04:44:53.156Z,74.32
2018-11-29T04:46:08.692Z,74.48
2018-11-29T04:47:12.821Z,74.13
2018-11-29T04:48:17.079Z,74.67
2018-11-29T04:49:21.184Z,74.34
2018-11-29T04:50:25.298Z,74.61
2018-11-29T04:51:29.386Z,74.62
2018-11-29T04:52:33.678Z,74.15
2018-11-29T04:53:37.804Z,74.79
2018-11-29T04:54:42.028Z,74.68
2018-11-29T04:55:46.228Z,74.24
2018-11-29T04:56:50.317Z,74.53
2018-11-29T04:57:54.376Z,74.65
2018-11-29T04:58:58.422Z,74.79
2018-11-29T05:00:02.539Z,74.85
2018-11-29T05:01:06.546Z,74.41
2018-11-29T05:02:11.948Z,74.79
2018-11-29T05:03:14.770Z,74.48
2018-11-29T05:04:19.002Z,74.78
2018-11-29T05:05:23.136Z,74.62
2018-11-29T05:06:27.234Z,74.92
2018-11-29T05:07:31.298Z,74.82
2018-11-29T05:08:35.394Z,74.44
2018-11-29T05:09:39.557Z,74.87
2018-11-29T05:10:43.620Z,74.70
2018-11-29T05:11:47.723Z,74.38
2018-11-29T05:12:51.815Z,74.55
2018-11-29T05:13:55.976Z,74.56
2018-11-29T05:14:59.990Z,74.54
2018-11-29T05:16:04.069Z,74.39
2018-11-29T05:17:08.162Z,74.52
2018-11-29T05:18:12.340Z,74.96
2018-11-29T05:19:16.424Z,74.50
2018-11-29T05:20:20.638Z,74.52
2018-11-29T05:21:24.689Z,74.92
2018-11-29T05:22:28.769Z,74.70
2018-11-29T05:23:33.019Z,74.87
2018-11-29T05:24:37.013Z,75.12
2018-11-29T05:25:41.106Z,74.46
2018-11-29T05:26:45.296Z,75.17
2018-11-29T05:27:49.468Z,75.20
2018-11-29T05:28:54.372Z,74.59
2018-11-29T05:29:58.592Z,74.97
2018-11-29T05:31:02.731Z,74.73
2018-11-29T05:32:06.957Z,75.31
2018-11-29T05:33:11.075Z,75.21
2018-11-29T05:34:15.141Z,75.03
2018-11-29T05:35:19.402Z,74.67
2018-11-29T05:36:23.488Z,75.46
2018-11-29T05:37:27.731Z,75.24
2018-11-29T05:38:31.866Z,75.74
2018-11-29T05:39:35.863Z,75.47
2018-11-29T05:40:39.957Z,75.45
2018-11-29T05:41:44.004Z,75.04
2018-11-29T05:42:48.325Z,74.96
2018-11-29T05:43:52.416Z,75.20
2018-11-29T05:44:56.552Z,75.11
2018-11-29T05:46:00.758Z,75.16
2018-11-29T05:47:05.561Z,75.58
2018-11-29T05:49:20.356Z,75.33
2018-11-29T05:50:24.446Z,75.62
2018-11-29T05:51:28.506Z,75.76
2018-11-29T05:52:32.848Z,75.89
2018-11-29T05:53:36.923Z,75.33
2018-11-29T05:54:41.054Z,75.73
2018-11-29T05:55:45.206Z,75.30
2018-11-29T05:56:49.459Z,76.08
2018-11-29T05:57:53.459Z,75.98
2018-11-29T05:58:57.535Z,76.04
2018-11-29T06:00:01.652Z,75.32
2018-11-29T06:01:08.600Z,75.38
2018-11-29T06:02:12.699Z,75.58
2018-11-29T06:03:16.936Z,75.41
2018-11-29T06:04:21.450Z,75.89
2018-11-29T06:05:25.675Z,75.74
2018-11-29T06:06:29.725Z,75.55
2018-11-29T06:07:33.842Z,76.11
2018-11-29T06:08:37.872Z,76.09
2018-11-29T06:09:42.130Z,76.13
2018-11-29T06:10:46.389Z,75.58
2018-11-29T06:11:50.492Z,76.17
2018-11-29T06:12:54.584Z,75.57
2018-11-29T06:13:58.644Z,75.81
2018-11-29T06:15:02.692Z,76.13
2018-11-29T06:16:06.842Z,75.92
2018-11-29T06:17:10.905Z,75.80
2018-11-29T06:18:14.955Z,76.13
2018-11-29T06:19:19.029Z,75.67
2018-11-29T06:20:23.133Z,75.89
2018-11-29T06:21:27.205Z,76.10
2018-11-29T06:22:31.263Z,76.10
2018-11-29T06:23:35.765Z,75.62
2018-11-29T06:24:40.290Z,75.47
2018-11-29T06:25:44.416Z,76.05
2018-11-29T06:26:48.762Z,75.62
2018-11-29T06:27:53.189Z,76.25
2018-11-29T06:28:57.271Z,75.58
2018-11-29T06:30:01.355Z,75.64
2018-11-29T06:31:05.779Z,75.65
2018-11-29T06:32:16.647Z,76.02
2018-11-29T06:33:20.796Z,75.75
2018-11-29T06:34:25.172Z,75.97
2018-11-29T06:35:29.538Z,75.74
2018-11-29T06:36:33.639Z,76.22
2018-11-29T06:37:38.041Z,75.73
2018-11-29T06:38:42.116Z,76.21
2018-11-29T06:39:46.144Z,75.65
2018-11-29T06:40:50.170Z,75.72
2018-11-29T06:41:54.397Z,75.92
2018-11-29T06:42:58.516Z,76.19
2018-11-29T06:44:02.682Z,76.12
2018-11-29T06:45:16.426Z,75.45
2018-11-29T06:46:21.019Z,76.08
2018-11-29T06:47:25.179Z,76.18
2018-11-29T06:48:29.181Z,75.70
2018-11-29T06:49:33.477Z,76.09
2018-11-29T06:50:37.665Z,76.24
2018-11-29T06:51:41.835Z,75.60
2018-11-29T06:52:46.816Z,75.72
2018-11-29T06:53:56.469Z,75.85
2018-11-29T06:55:00.564Z,75.87
2018-11-29T06:56:04.626Z,75.97
2018-11-29T06:57:09.461Z,75.59
2018-11-29T06:58:13.572Z,75.93
2018-11-29T06:59:17.651Z,75.99
2018-11-29T07:00:33.782Z,75.40
2018-11-29T07:01:37.935Z,75.55
2018-11-29T07:02:42.014Z,75.81
2018-11-29T07:03:46.076Z,75.68
2018-11-29T07:04:50.211Z,75.78
2018-11-29T07:05:54.304Z,75.84
2018-11-29T07:06:58.614Z,75.93
2018-11-29T07:08:02.763Z,75.34
2018-11-29T07:09:08.794Z,75.54
2018-11-29T07:10:15.204Z,75.26
2018-11-29T07:11:19.474Z,75.61
2018-11-29T07:12:23.655Z,75.10
2018-11-29T07:13:28.133Z,75.19
2018-11-29T07:14:37.115Z,75.63
2018-11-29T07:15:41.444Z,75.14
2018-11-29T07:16:45.486Z,75.08
2018-11-29T07:17:49.666Z,75.65
2018-11-29T07:18:53.729Z,75.63
2018-11-29T07:19:57.839Z,75.14
2018-11-29T07:21:13.708Z,75.68
2018-11-29T07:22:17.799Z,75.35
2018-11-29T07:23:21.927Z,75.25
2018-11-29T07:24:26.256Z,75.71
2018-11-29T07:25:30.367Z,75.80
2018-11-29T07:26:34.577Z,75.71
2018-11-29T07:27:39.359Z,75.50
2018-11-29T07:28:43.364Z,75.42
2018-11-29T07:29:47.470Z,75.39
2018-11-29T07:30:51.556Z,75.40
2018-11-29T07:31:55.800Z,75.71
2018-11-29T07:32:59.893Z,75.49
2018-11-29T07:34:04.007Z,75.30
2018-11-29T07:35:09.399Z,75.25
2018-11-29T07:36:14.018Z,75.27
2018-11-29T07:37:18.114Z,75.35
2018-11-29T07:38:22.355Z,75.62
2018-11-29T07:39:26.572Z,75.24
2018-11-29T07:40:30.686Z,75.37
2018-11-29T07:41:34.754Z,75.06
2018-11-29T07:42:39.012Z,75.19
2018-11-29T07:43:43.048Z,75.23
2018-11-29T07:44:47.357Z,75.52
2018-11-29T07:45:51.424Z,75.67
2018-11-29T07:46:55.674Z,75.54
2018-11-29T07:47:59.683Z,75.17
2018-11-29T07:49:03.744Z,75.22
2018-11-29T07:50:17.143Z,75.37
2018-11-29T07:51:21.289Z,75.61
2018-11-29T07:52:25.378Z,75.28
2018-11-29T07:53:29.545Z,75.38
2018-11-29T07:54:33.739Z,75.45
2018-11-29T07:55:37.875Z,74.86
2018-11-29T07:56:41.975Z,75.35
2018-11-29T07:57:46.956Z,74.75
2018-11-29T07:58:52.429Z,75.18
2018-11-29T07:59:55.356Z,75.05
2018-11-29T08:00:59.476Z,75.02
2018-11-29T08:02:03.675Z,74.77
2018-11-29T08:03:07.727Z,75.01
2018-11-29T08:04:11.910Z,74.93
2018-11-29T08:05:16.475Z,74.36
2018-11-29T08:06:21.532Z,74.87
2018-11-29T08:07:25.584Z,74.31
2018-11-29T08:08:29.819Z,74.54
2018-11-29T08:09:33.846Z,74.75
2018-11-29T08:10:38.157Z,74.66
2018-11-29T08:11:42.258Z,74.66
2018-11-29T08:12:46.367Z,74.02
2018-11-29T08:13:50.459Z,73.99
2018-11-29T08:14:54.715Z,74.18
2018-11-29T08:15:58.739Z,74.24
2018-11-29T08:17:03.077Z,73.87
2018-11-29T08:18:07.286Z,74.01
2018-11-29T08:19:11.518Z,74.27
2018-11-29T08:20:18.677Z,73.54
2018-11-29T08:21:22.790Z,73.43
2018-11-29T08:22:26.863Z,73.90
2018-11-29T08:23:31.024Z,74.03
2018-11-29T08:24:35.283Z,73.42
2018-11-29T08:25:39.505Z,73.67
2018-11-29T08:26:43.525Z,73.64
2018-11-29T08:27:47.878Z,73.91
2018-11-29T08:28:51.990Z,73.72
2018-11-29T08:29:56.117Z,73.75
2018-11-29T08:31:00.343Z,73.63
2018-11-29T08:32:04.376Z,73.03
2018-11-29T08:33:08.503Z,73.53
2018-11-29T08:34:12.776Z,73.14
2018-11-29T08:35:16.822Z,73.71
2018-11-29T08:36:21.019Z,73.05
2018-11-29T08:37:25.832Z,73.00
2018-11-29T08:38:31.769Z,73.59
2018-11-29T08:39:36.187Z,73.60
2018-11-29T08:40:40.210Z,73.08
2018-11-29T08:41:44.718Z,73.57
2018-11-29T08:42:48.879Z,72.93
2018-11-29T08:43:53.089Z,72.99
2018-11-29T08:44:57.415Z,72.79
2018-11-29T08:46:01.497Z,72.86
2018-11-29T08:47:05.831Z,72.75
2018-11-29T08:48:09.960Z,72.71
2018-11-29T08:49:14.299Z,72.68
2018-11-29T08:50:18.501Z,73.25
2018-11-29T08:51:22.790Z,73.38
2018-11-29T08:52:27.059Z,73.14
2018-11-29T08:53:31.237Z,73.27
2018-11-29T08:54:35.978Z,73.17
2018-11-29T08:55:40.218Z,72.61
2018-11-29T08:56:45.106Z,72.67
2018-11-29T08:57:50.235Z,72.82
2018-11-29T08:58:55.222Z,72.54
2018-11-29T09:00:00.263Z,72.49
2018-11-29T09:01:05.906Z,72.87
2018-11-29T09:02:10.132Z,72.99
2018-11-29T09:03:14.986Z,72.57
2018-11-29T09:04:19.951Z,72.62
2018-11-29T09:05:23.999Z,72.66
2018-11-29T09:06:28.089Z,72.95
2018-11-29T09:07:32.260Z,72.19
2018-11-29T09:08:36.391Z,72.30
2018-11-29T09:09:40.677Z,72.69
2018-11-29T09:10:45.027Z,72.02
2018-11-29T09:11:49.093Z,72.57
2018-11-29T09:12:53.329Z,72.70
2018-11-29T09:13:57.656Z,72.02
2018-11-29T09:15:02.228Z,72.55
2018-11-29T09:16:06.450Z,72.44
2018-11-29T09:17:10.512Z,71.67
2018-11-29T09:18:14.571Z,71.99
2018-11-29T09:19:18.745Z,71.96
2018-11-29T09:20:23.187Z,71.77
2018-11-29T09:21:27.320Z,71.98
2018-11-29T09:22:31.470Z,72.05
2018-11-29T09:23:35.593Z,72.10
2018-11-29T09:24:39.906Z,72.13
2018-11-29T09:25:44.103Z,72.54
2018-11-29T09:26:48.267Z,71.93
2018-11-29T09:27:52.837Z,72.51
2018-11-29T09:28:56.994Z,72.54
2018-11-29T09:30:01.208Z,71.92
2018-11-29T09:31:05.728Z,71.89
2018-11-29T09:32:09.805Z,72.17
2018-11-29T09:33:14.082Z,72.06
2018-11-29T09:34:18.297Z,72.00
2018-11-29T09:35:23.025Z,71.95
2018-11-29T09:36:27.172Z,71.93
2018-11-29T09:37:31.248Z,72.05
2018-11-29T09:38:35.394Z,72.10
2018-11-29T09:39:39.580Z,71.85
2018-11-29T09:40:43.696Z,71.77
2018-11-29T09:41:47.806Z,71.77
2018-11-29T09:42:51.934Z,71.64
2018-11-29T09:43:56.108Z,71.83
2018-11-29T09:45:00.125Z,71.70
2018-11-29T09:46:04.230Z,71.80
2018-11-29T09:47:08.388Z,71.71
2018-11-29T09:48:12.694Z,71.75
2018-11-29T09:49:16.917Z,71.87
2018-11-29T09:50:21.084Z,71.86
2018-11-29T09:51:25.186Z,72.20
2018-11-29T09:52:29.260Z,72.13
2018-11-29T09:53:33.351Z,72.64
2018-11-29T09:54:37.436Z,72.62
2018-11-29T09:55:41.611Z,72.42
2018-11-29T09:56:45.659Z,72.03
2018-11-29T09:57:50.711Z,72.03
2018-11-29T09:58:54.839Z,72.55
2018-11-29T09:59:59.685Z,72.22
2018-11-29T10:01:03.748Z,72.12
2018-11-29T10:02:07.911Z,72.60
2018-11-29T10:03:13.434Z,72.65
2018-11-29T10:04:17.686Z,72.79
2018-11-29T10:05:22.194Z,72.76
2018-11-29T10:06:26.475Z,72.04
2018-11-29T10:07:30.551Z,72.39
2018-11-29T10:08:34.951Z,72.18
2018-11-29T10:09:39.339Z,72.68
2018-11-29T10:10:43.414Z,72.24
2018-11-29T10:11:47.517Z,72.16
2018-11-29T10:12:52.116Z,72.26
2018-11-29T10:13:56.139Z,72.81
2018-11-29T10:15:00.425Z,72.20
2018-11-29T10:16:04.552Z,72.33
2018-11-29T10:17:08.696Z,72.62
2018-11-29T10:18:12.929Z,71.87
2018-11-29T10:19:17.153Z,73.01
2018-11-29T10:20:21.299Z,72.54
2018-11-29T10:21:25.511Z,72.58
2018-11-29T10:22:29.675Z,73.13
2018-11-29T10:23:33.656Z,72.75
2018-11-29T10:24:37.751Z,73.16
2018-11-29T10:25:42.201Z,73.22
2018-11-29T10:26:46.294Z,73.47
2018-11-29T10:27:53.468Z,73.31
2018-11-29T10:28:57.711Z,73.19
2018-11-29T10:30:01.759Z,73.38
2018-11-29T10:31:06.900Z,72.85
2018-11-29T10:32:11.015Z,72.98
2018-11-29T10:33:15.102Z,72.90
2018-11-29T10:34:19.339Z,73.03
2018-11-29T10:35:23.488Z,72.92
2018-11-29T10:36:27.578Z,73.15
2018-11-29T10:37:31.963Z,72.82
2018-11-29T10:38:36.062Z,73.29
2018-11-29T10:39:40.437Z,73.43
2018-11-29T10:40:44.332Z,72.90
2018-11-29T10:41:48.578Z,73.49
2018-11-29T10:42:52.628Z,73.06
2018-11-29T10:43:56.741Z,73.20
2018-11-29T10:45:00.903Z,73.57
2018-11-29T10:46:05.436Z,73.63
2018-11-29T10:47:09.609Z,73.71
2018-11-29T10:48:15.374Z,73.58
2018-11-29T10:49:19.483Z,73.11
2018-11-29T10:50:23.558Z,73.67
2018-11-29T10:51:27.655Z,73.69
2018-11-29T10:52:31.730Z,73.58
2018-11-29T10:53:38.110Z,73.89
2018-11-29T10:54:40.837Z,73.37
2018-11-29T10:55:45.010Z,74.29
2018-11-29T10:56:49.193Z,73.96
2018-11-29T10:57:53.529Z,74.00
2018-11-29T10:58:57.571Z,73.92
2018-11-29T11:00:01.640Z,73.99
2018-11-29T11:01:11.681Z,74.07
2018-11-29T11:02:21.297Z,73.46
2018-11-29T11:03:25.421Z,73.62
2018-11-29T11:04:29.471Z,73.56
2018-11-29T11:05:33.621Z,73.68
2018-11-29T11:06:37.797Z,74.36
2018-11-29T11:07:42.052Z,73.79
2018-11-29T11:08:46.167Z,73.71
2018-11-29T11:09:50.508Z,74.47
2018-11-29T11:10:54.687Z,73.82
2018-11-29T11:11:58.888Z,74.40
2018-11-29T11:13:02.905Z,73.93
2018-11-29T11:14:07.210Z,73.95
2018-11-29T11:15:11.343Z,74.28
2018-11-29T11:16:15.492Z,74.18
2018-11-29T11:17:19.817Z,73.99
2018-11-29T11:18:23.899Z,74.08
2018-11-29T11:19:28.234Z,74.66
2018-11-29T11:20:32.416Z,74.78
2018-11-29T11:21:36.558Z,74.22
2018-11-29T11:22:40.685Z,74.66
2018-11-29T11:23:44.747Z,74.29
2018-11-29T11:24:48.819Z,74.34
2018-11-29T11:25:53.467Z,74.85
2018-11-29T11:26:57.757Z,74.32
2018-11-29T11:28:03.003Z,74.89
2018-11-29T11:29:07.123Z,75.00
2018-11-29T11:30:15.286Z,75.01
2018-11-29T11:31:19.356Z,75.12
2018-11-29T11:32:23.475Z,75.01
2018-11-29T11:33:27.637Z,74.63
2018-11-29T11:34:31.777Z,74.81
2018-11-29T11:35:35.995Z,75.32
2018-11-29T11:36:40.257Z,74.85
2018-11-29T11:37:44.718Z,75.48
2018-11-29T11:38:49.569Z,74.87
2018-11-29T11:39:53.675Z,75.43
2018-11-29T11:40:58.039Z,75.57
2018-11-29T11:42:02.230Z,75.73
2018-11-29T11:43:07.142Z,75.23
2018-11-29T11:44:11.169Z,75.34
2018-11-29T11:45:17.415Z,75.66
2018-11-29T11:46:21.500Z,76.09
2018-11-29T11:47:25.964Z,75.40
2018-11-29T11:48:30.077Z,75.42
2018-11-29T11:49:34.157Z,75.36
2018-11-29T11:50:38.686Z,75.65
2018-11-29T11:51:42.868Z,76.01
2018-11-29T11:52:47.011Z,75.60
2018-11-29T11:53:51.243Z,75.81
2018-11-29T11:54:55.348Z,76.15
2018-11-29T11:55:59.483Z,76.30
2018-11-29T11:57:03.691Z,75.94
2018-11-29T11:58:08.402Z,76.17
2018-11-29T11:59:12.481Z,76.07
2018-11-29T12:00:21.872Z,76.62
2018-11-29T12:01:26.035Z,76.59
2018-11-29T12:02:30.111Z,76.59
2018-11-29T12:03:34.146Z,76.24
2018-11-29T12:04:38.367Z,76.14
2018-11-29T12:05:42.515Z,76.39
2018-11-29T12:06:46.553Z,76.83
2018-11-29T12:07:50.605Z,76.38
2018-11-29T12:08:54.734Z,76.34
2018-11-29T12:09:58.941Z,76.35
2018-11-29T12:11:03.030Z,76.67
2018-11-29T12:12:07.069Z,76.85
2018-11-29T12:13:11.142Z,76.52
2018-11-29T12:14:15.227Z,76.83
2018-11-29T12:15:19.354Z,76.92
2018-11-29T12:16:23.351Z,76.33
2018-11-29T12:17:27.457Z,76.56
2018-11-29T12:18:32.196Z,76.89
2018-11-29T12:19:36.428Z,76.65
2018-11-29T12:20:40.870Z,76.82
2018-11-29T12:21:44.974Z,76.09
2018-11-29T12:22:49.096Z,76.15
2018-11-29T12:23:53.398Z,76.55
2018-11-29T12:24:57.497Z,76.14
2018-11-29T12:26:01.902Z,76.71
2018-11-29T12:27:06.665Z,76.02
2018-11-29T12:28:10.795Z,76.50
2018-11-29T12:29:14.927Z,75.99
2018-11-29T12:30:31.070Z,75.97
2018-11-29T12:31:35.131Z,76.42
2018-11-29T12:32:39.225Z,76.35
2018-11-29T12:33:43.308Z,76.52
2018-11-29T12:34:47.782Z,76.24
2018-11-29T12:35:51.811Z,76.61
2018-11-29T12:36:56.087Z,76.70
2018-11-29T12:38:00.169Z,76.32
2018-11-29T12:39:06.051Z,75.73
2018-11-29T12:40:11.471Z,76.19
2018-11-29T12:41:15.728Z,76.10
2018-11-29T12:42:19.768Z,75.94
2018-11-29T12:43:23.810Z,75.50
2018-11-29T12:44:27.820Z,75.96
2018-11-29T12:45:31.950Z,75.32
2018-11-29T12:46:36.038Z,75.31
2018-11-29T12:47:40.296Z,75.83
2018-11-29T12:48:44.496Z,75.65
2018-11-29T12:49:48.616Z,75.62
2018-11-29T12:50:53.018Z,75.26
2018-11-29T12:51:57.066Z,75.52
2018-11-29T12:53:01.103Z,74.91
2018-11-29T12:54:06.293Z,75.38
2018-11-29T12:55:10.985Z,74.80
2018-11-29T12:56:15.411Z,74.78
2018-11-29T12:57:19.694Z,74.98
2018-11-29T12:58:23.764Z,75.24
2018-11-29T12:59:27.848Z,74.77
2018-11-29T13:00:32.095Z,75.23
2018-11-29T13:01:36.210Z,74.70
2018-11-29T13:02:43.670Z,75.04
2018-11-29T13:03:47.802Z,74.74
2018-11-29T13:04:51.926Z,74.67
2018-11-29T13:05:55.994Z,74.60
2018-11-29T13:07:00.848Z,74.93
2018-11-29T13:08:06.276Z,74.63
2018-11-29T13:09:17.155Z,74.58
2018-11-29T13:10:23.854Z,75.05
2018-11-29T13:11:27.529Z,74.90
2018-11-29T13:12:31.839Z,74.52
2018-11-29T13:13:35.871Z,74.50
2018-11-29T13:14:39.976Z,75.07
2018-11-29T13:15:44.299Z,74.41
2018-11-29T13:16:48.408Z,74.47
2018-11-29T13:17:52.722Z,74.91
2018-11-29T13:18:56.795Z,74.92
2018-11-29T13:20:00.980Z,74.30
2018-11-29T13:21:05.060Z,74.89
2018-11-29T13:22:09.165Z,74.39
2018-11-29T13:23:13.544Z,75.00
2018-11-29T13:24:17.715Z,74.83
2018-11-29T13:25:23.022Z,74.70
2018-11-29T13:26:27.434Z,74.66
2018-11-29T13:27:31.539Z,74.21
2018-11-29T13:28:35.644Z,74.64
2018-11-29T13:29:39.767Z,74.06
2018-11-29T13:30:43.943Z,74.58
2018-11-29T13:31:48.178Z,74.69
2018-11-29T13:32:54.370Z,74.45
2018-11-29T13:33:58.384Z,74.34
2018-11-29T13:35:02.561Z,74.43
2018-11-29T13:36:07.074Z,74.52
2018-11-29T13:37:11.153Z,73.95
2018-11-29T13:38:16.327Z,74.00
2018-11-29T13:39:20.549Z,73.88
2018-11-29T13:40:24.800Z,73.54
2018-11-29T13:41:28.818Z,73.80
2018-11-29T13:42:32.878Z,74.40
2018-11-29T13:43:36.969Z,73.82
2018-11-29T13:44:41.013Z,73.79
2018-11-29T13:45:45.078Z,74.22
2018-11-29T13:46:49.144Z,73.73
2018-11-29T13:47:53.268Z,74.18
2018-11-29T13:48:57.373Z,73.73
2018-11-29T13:50:01.408Z,73.85
2018-11-29T13:51:05.731Z,73.74